Time;durP1;ratioP1;P1;durP2;ratioP2;P2;SDS_P1;SDS_P2;PMS_P1;PMS_P2;Temp;Humidity;BMP_temperature;BMP_pressure;BME280_temperature;BME280_humidity;BME280_pressure;Samples;Min_cycle;Max_cycle;Signal;HPM_P1;HPM_P2
2022/09/15 00:00:21;;;;;;;4.55;2.28;;;;;;;16.40;100.00;95244.44;5068803;28;20386;-77
2022/09/15 00:02:47;;;;;;;4.70;1.88;;;;;;;16.38;100.00;95249.16;5069705;28;20119;-77
2022/09/15 00:05:13;;;;;;;3.72;1.77;;;;;;;16.42;100.00;95245.00;5069711;28;20166;-77
2022/09/15 00:07:39;;;;;;;2.85;1.90;;;;;;;16.42;100.00;95254.81;5063323;28;20836;-77
2022/09/15 00:10:06;;;;;;;2.97;1.65;;;;;;;16.46;100.00;95279.88;5066660;28;20121;-78
2022/09/15 00:12:32;;;;;;;7.15;2.83;;;;;;;16.39;100.00;95287.91;5063270;28;20064;-77
2022/09/15 00:14:58;;;;;;;6.40;1.92;;;;;;;16.19;100.00;95287.28;5071861;28;20036;-77
2022/09/15 00:17:24;;;;;;;8.90;2.70;;;;;;;16.20;100.00;95288.91;5068961;28;20024;-77
2022/09/15 00:19:50;;;;;;;5.55;1.98;;;;;;;16.21;100.00;95290.53;5058362;28;20367;-76
2022/09/15 00:22:15;;;;;;;5.88;2.50;;;;;;;16.13;100.00;95296.09;5072012;28;20055;-77
2022/09/15 00:24:41;;;;;;;4.85;2.00;;;;;;;16.09;100.00;95289.59;5068659;28;20025;-77
2022/09/15 00:27:07;;;;;;;5.97;2.35;;;;;;;16.12;100.00;95297.94;5066944;28;20036;-77
2022/09/15 00:29:34;;;;;;;8.05;2.50;;;;;;;16.11;100.00;95296.31;5068069;28;20103;-77
2022/09/15 00:32:00;;;;;;;4.68;2.30;;;;;;;16.12;100.00;95305.09;5069044;28;20066;-77
2022/09/15 00:34:26;;;;;;;6.25;2.20;;;;;;;16.04;100.00;95298.22;5067553;28;20111;-77
2022/09/15 00:36:52;;;;;;;6.22;2.53;;;;;;;16.02;100.00;95295.75;5063583;28;20108;-77
2022/09/15 00:39:20;;;;;;;5.85;2.30;;;;;;;16.02;100.00;95293.13;5058500;28;20036;-77
2022/09/15 00:41:46;;;;;;;4.60;2.55;;;;;;;16.03;100.00;95289.47;5062984;28;20032;-77
2022/09/15 00:44:17;;;;;;;6.53;2.50;;;;;;;15.98;100.00;95291.13;5056651;28;20040;-76
2022/09/15 00:46:46;;;;;;;5.05;2.50;;;;;;;15.99;100.00;95292.75;5063757;28;20517;-77
2022/09/15 00:49:20;;;;;;;7.90;2.42;;;;;;;15.94;100.00;95280.13;5058766;28;20037;-77
2022/09/15 00:51:51;;;;;;;4.20;2.47;;;;;;;15.95;100.00;95294.19;5066444;28;20060;-77
2022/09/15 00:54:38;;;;;;;6.15;2.60;;;;;;;15.90;100.00;95297.50;5060021;28;20115;-77
2022/09/15 00:57:08;;;;;;;4.00;1.92;;;;;;;15.93;100.00;95293.63;5065926;28;20070;-77
2022/09/15 00:59:38;;;;;;;5.57;2.90;;;;;;;15.91;100.00;95299.13;5058376;28;20034;-77
2022/09/15 01:02:14;;;;;;;4.45;2.40;;;;;;;15.91;100.00;95300.97;5057729;28;20394;-77
2022/09/15 01:04:40;;;;;;;4.25;2.15;;;;;;;15.88;100.00;95298.75;5063016;28;20111;-77
2022/09/15 01:07:09;;;;;;;6.80;3.00;;;;;;;15.84;100.00;95298.38;5067462;28;20059;-77
2022/09/15 01:09:57;;;;;;;6.03;2.63;;;;;;;15.88;100.00;95298.75;5061994;28;20051;-76
2022/09/15 01:12:24;;;;;;;7.95;2.83;;;;;;;15.86;100.00;95293.69;5059715;28;20048;-77
2022/09/15 01:14:50;;;;;;;4.93;2.58;;;;;;;15.88;100.00;95293.44;5065562;28;20139;-77
2022/09/15 01:17:34;;;;;;;5.95;2.30;;;;;;;15.81;100.00;95296.13;5064273;28;20389;-77
2022/09/15 01:20:05;;;;;;;4.85;2.63;;;;;;;15.83;100.00;95299.41;5063684;28;20115;-77
2022/09/15 01:22:36;;;;;;;6.03;2.67;;;;;;;15.83;100.00;95287.97;5050213;28;20074;-77
2022/09/15 01:25:34;;;;;;;4.43;2.10;;;;;;;15.83;100.00;95288.78;5074713;28;20114;-77
2022/09/15 01:28:50;;;;;;;5.13;2.55;;;;;;;15.76;100.00;95278.25;5052960;28;20082;-77
2022/09/15 01:31:32;;;;;;;5.35;2.80;;;;;;;15.78;100.00;95286.78;5065598;28;20845;-77
2022/09/15 01:34:12;;;;;;;4.43;2.75;;;;;;;15.83;100.00;95278.19;5063994;28;20402;-77
2022/09/15 01:36:47;;;;;;;5.63;2.67;;;;;;;15.84;100.00;95279.81;5063330;28;20031;-77
2022/09/15 01:39:20;;;;;;;6.18;2.50;;;;;;;15.84;100.00;95276.34;5063890;28;20040;-77
2022/09/15 01:41:50;;;;;;;5.35;2.83;;;;;;;15.81;100.00;95284.72;5067491;28;20032;-77
2022/09/15 01:44:28;;;;;;;5.70;2.67;;;;;;;15.82;100.00;95286.34;5058366;28;20036;-77
2022/09/15 01:46:57;;;;;;;4.15;2.55;;;;;;;15.86;100.00;95283.06;5059090;28;20033;-77
2022/09/15 01:49:29;;;;;;;7.70;3.83;;;;;;;15.88;100.00;95281.00;5064930;28;20067;-77
2022/09/15 01:51:54;;;;;;;6.63;2.90;;;;;;;15.85;100.00;95267.34;5059627;28;20160;-77
2022/09/15 01:54:31;;;;;;;5.22;2.25;;;;;;;15.87;100.00;95273.28;5073426;28;20059;-77
2022/09/15 01:56:57;;;;;;;5.60;2.40;;;;;;;15.87;100.00;95270.63;5062789;28;20615;-77
2022/09/15 01:59:23;;;;;;;6.00;2.58;;;;;;;15.86;100.00;95276.94;5065291;28;20036;-77
2022/09/15 02:01:58;;;;;;;4.18;2.35;;;;;;;15.83;100.00;95269.41;5061412;28;20044;-77
2022/09/15 02:04:33;;;;;;;5.32;2.47;;;;;;;15.83;100.00;95261.44;5062110;28;20478;-77
2022/09/15 02:07:10;;;;;;;4.95;2.70;;;;;;;15.86;100.00;95266.31;5068410;28;20485;-78
2022/09/15 02:10:02;;;;;;;4.13;2.55;;;;;;;15.87;100.00;95267.97;5057931;28;20392;-77
2022/09/15 02:12:49;;;;;;;4.32;2.15;;;;;;;15.85;100.00;95270.00;5057882;28;20144;-77
2022/09/15 02:15:27;;;;;;;4.80;2.40;;;;;;;15.87;100.00;95262.66;5050630;28;20036;-77
2022/09/15 02:17:58;;;;;;;7.45;2.90;;;;;;;15.88;100.00;95258.97;5054237;28;20040;-79
2022/09/15 02:20:39;;;;;;;6.72;2.15;;;;;;;15.89;100.00;95260.59;5067165;28;20056;-77
2022/09/15 02:23:37;;;;;;;6.78;2.90;;;;;;;15.82;100.00;95250.03;5062556;28;20036;-77
2022/09/15 02:26:12;;;;;;;5.22;2.67;;;;;;;15.82;100.00;95249.22;5067280;28;20037;-77
2022/09/15 02:28:40;;;;;;;4.38;2.20;;;;;;;15.81;100.00;95255.56;5065037;28;20101;-77
2022/09/15 02:31:10;;;;;;;4.13;1.92;;;;;;;15.80;100.00;95249.47;5042806;28;20048;-77
2022/09/15 02:33:41;;;;;;;5.28;2.10;;;;;;;15.80;100.00;95252.13;5065038;28;20047;-77
2022/09/15 02:36:10;;;;;;;5.70;2.13;;;;;;;15.84;100.00;95252.50;5068488;28;20032;-77
2022/09/15 02:38:42;;;;;;;4.50;2.28;;;;;;;15.82;100.00;95249.22;5068191;28;20036;-77
2022/09/15 02:41:07;;;;;;;6.13;2.20;;;;;;;15.86;100.00;95255.72;5051273;28;20123;-76
2022/09/15 02:43:33;;;;;;;6.70;1.80;;;;;;;15.86;100.00;95243.28;5061197;28;20164;-77
2022/09/15 02:45:59;;;;;;;6.00;2.38;;;;;;;15.86;100.00;95239.81;5068577;28;20040;-77
2022/09/15 02:48:24;;;;;;;7.38;2.40;;;;;;;15.85;100.00;95239.00;5067121;28;20039;-77
2022/09/15 02:50:50;;;;;;;16.92;9.27;;;;;;;15.83;100.00;95242.88;5083658;28;20031;-77
2022/09/15 02:53:16;;;;;;;25.73;13.00;;;;;;;15.82;100.00;95242.09;5068672;28;20040;-77
2022/09/15 02:55:41;;;;;;;16.45;8.98;;;;;;;15.82;100.00;95238.63;5048105;28;20421;-77
2022/09/15 02:58:07;;;;;;;8.52;3.88;;;;;;;15.82;100.00;95250.03;5058194;28;20029;-77
2022/09/15 03:00:33;;;;;;;6.20;2.42;;;;;;;15.84;100.00;95247.19;5070002;28;20044;-77
2022/09/15 03:02:58;;;;;;;4.88;2.28;;;;;;;15.85;100.00;95248.81;5065740;28;20140;-77
2022/09/15 03:05:28;;;;;;;5.85;2.08;;;;;;;15.89;100.00;95250.78;5066237;28;20043;-77
2022/09/15 03:07:56;;;;;;;6.43;1.90;;;;;;;15.90;100.00;95246.31;5066456;28;20060;-77
2022/09/15 03:10:23;;;;;;;7.05;2.33;;;;;;;15.88;100.00;95243.88;5048765;28;20135;-77
2022/09/15 03:12:51;;;;;;;5.25;1.83;;;;;;;15.86;100.00;95240.66;5063168;28;20109;-77
2022/09/15 03:15:20;;;;;;;3.75;2.08;;;;;;;15.93;100.00;95235.28;5065755;28;20036;-77
2022/09/15 03:17:47;;;;;;;5.72;2.10;;;;;;;15.87;100.00;95244.09;5056059;28;20044;-77
2022/09/15 03:20:22;;;;;;;4.40;1.92;;;;;;;15.86;100.00;95239.81;5065210;28;20081;-77
2022/09/15 03:22:48;;;;;;;4.57;1.73;;;;;;;15.86;100.00;95238.00;5049941;28;20596;-77
2022/09/15 03:25:15;;;;;;;5.25;1.58;;;;;;;15.82;100.00;95236.78;5064828;28;20036;-77
2022/09/15 03:27:41;;;;;;;5.10;2.05;;;;;;;15.79;100.00;95230.09;5054632;28;20032;-77
2022/09/15 03:30:08;;;;;;;5.40;1.90;;;;;;;15.83;100.00;95230.47;5063490;28;20036;-77
2022/09/15 03:32:34;;;;;;;2.92;1.63;;;;;;;15.78;100.00;95236.41;5066570;28;20041;-77
2022/09/15 03:34:59;;;;;;;5.40;1.92;;;;;;;15.74;100.00;95232.56;5038083;28;20036;-77
2022/09/15 03:37:25;;;;;;;8.13;2.08;;;;;;;15.67;100.00;95234.47;5066029;28;20028;-77
2022/09/15 03:39:51;;;;;;;4.68;1.88;;;;;;;15.68;100.00;95233.44;5059996;28;20020;-77
2022/09/15 03:42:16;;;;;;;7.03;2.17;;;;;;;15.69;100.00;95237.72;5076736;28;20037;-76
2022/09/15 03:44:42;;;;;;;6.47;1.70;;;;;;;15.65;100.00;95228.53;5062840;28;20036;-78
2022/09/15 03:47:08;;;;;;;5.72;1.58;;;;;;;15.67;100.00;95229.16;5066181;28;20749;-77
2022/09/15 03:49:33;;;;;;;5.05;1.98;;;;;;;15.74;100.00;95226.47;5063147;28;20032;-77
2022/09/15 03:51:59;;;;;;;7.70;1.95;;;;;;;15.75;100.00;95230.72;5069358;28;20109;-77
2022/09/15 03:54:25;;;;;;;5.68;2.00;;;;;;;15.73;100.00;95217.69;5050546;28;20051;-77
2022/09/15 03:56:51;;;;;;;6.45;1.83;;;;;;;15.74;100.00;95221.97;5058868;28;20043;-77
2022/09/15 03:59:18;;;;;;;6.75;2.13;;;;;;;15.74;100.00;95219.31;5069580;28;20036;-77
2022/09/15 04:01:47;;;;;;;5.07;2.10;;;;;;;15.72;100.00;95229.31;5063549;28;20664;-78
2022/09/15 04:04:13;;;;;;;5.40;2.42;;;;;;;15.78;100.00;95225.00;5067512;28;20040;-78
2022/09/15 04:06:40;;;;;;;5.15;1.95;;;;;;;15.76;100.00;95227.03;5063216;28;20063;-77
2022/09/15 04:09:06;;;;;;;6.68;2.10;;;;;;;15.76;100.00;95227.88;5067697;28;20036;-78
2022/09/15 04:11:31;;;;;;;6.45;2.58;;;;;;;15.69;100.00;95220.97;5056760;28;20029;-77
2022/09/15 04:13:57;;;;;;;6.70;2.10;;;;;;;15.74;100.00;95224.63;5063314;28;20032;-77
2022/09/15 04:16:26;;;;;;;9.07;2.65;;;;;;;15.72;100.00;95224.00;5061651;28;20032;-77
2022/09/15 04:18:54;;;;;;;5.97;2.00;;;;;;;15.76;100.00;95224.38;5067657;28;20043;-78
2022/09/15 04:21:22;;;;;;;4.32;1.73;;;;;;;15.79;100.00;95214.19;5052488;28;20054;-78
2022/09/15 04:23:49;;;;;;;3.63;1.75;;;;;;;15.78;100.00;95212.53;5068233;28;20041;-77
2022/09/15 04:26:27;;;;;;;3.97;1.85;;;;;;;15.78;100.00;95215.19;5067205;28;20032;-78
2022/09/15 04:28:53;;;;;;;5.82;1.58;;;;;;;15.79;100.00;95214.19;5068449;28;20040;-77
2022/09/15 04:31:19;;;;;;;3.80;1.75;;;;;;;15.75;100.00;95215.63;5067571;28;20039;-77
2022/09/15 04:33:46;;;;;;;4.50;1.63;;;;;;;15.81;100.00;95221.09;5067184;28;20056;-77
2022/09/15 04:36:18;;;;;;;3.35;1.70;;;;;;;15.74;100.00;95216.66;5067492;28;20048;-77
2022/09/15 04:38:44;;;;;;;2.78;1.23;;;;;;;15.75;100.00;95218.28;5067091;28;20066;-77
2022/09/15 04:41:11;;;;;;;4.97;1.40;;;;;;;15.79;100.00;95219.50;5063087;28;20076;-77
2022/09/15 04:43:37;;;;;;;3.72;1.52;;;;;;;15.77;100.00;95216.22;5075311;28;20040;-77
2022/09/15 04:46:03;;;;;;;4.38;1.55;;;;;;;15.78;100.00;95212.53;5072031;28;20118;-78
2022/09/15 04:48:29;;;;;;;7.38;2.50;;;;;;;15.77;100.00;95212.78;5059667;28;20496;-77
2022/09/15 04:51:00;;;;;;;3.13;1.55;;;;;;;15.76;100.00;95208.47;5064553;28;20040;-76
2022/09/15 04:53:26;;;;;;;10.35;1.85;;;;;;;15.71;100.00;95209.13;5067730;28;20409;-77
2022/09/15 04:55:51;;;;;;;4.20;1.40;;;;;;;15.74;100.00;95214.00;5065965;28;20033;-77
2022/09/15 04:58:17;;;;;;;2.50;1.40;;;;;;;15.73;100.00;95212.41;5066513;28;20043;-76
2022/09/15 05:00:43;;;;;;;3.72;1.60;;;;;;;15.75;100.00;95212.16;5055016;28;20033;-78
2022/09/15 05:03:13;;;;;;;2.85;1.35;;;;;;;15.77;100.00;95213.59;5067783;28;20040;-77
2022/09/15 05:05:39;;;;;;;3.05;1.38;;;;;;;15.73;100.00;95209.75;5066927;28;20028;-78
2022/09/15 05:08:06;;;;;;;1.73;1.25;;;;;;;15.76;100.00;95216.44;5058034;28;20025;-78
2022/09/15 05:10:33;;;;;;;4.45;1.63;;;;;;;15.75;100.00;95217.47;5062814;28;20425;-77
2022/09/15 05:12:59;;;;;;;2.80;1.40;;;;;;;15.73;100.00;95214.25;5067355;28;20983;-77
2022/09/15 05:15:24;;;;;;;3.65;1.58;;;;;;;15.76;100.00;95211.97;5068416;28;20032;-79
2022/09/15 05:17:50;;;;;;;2.95;1.38;;;;;;;15.82;100.00;95212.91;5066519;28;20044;-77
2022/09/15 05:20:16;;;;;;;3.72;1.40;;;;;;;15.77;100.00;95220.72;5056346;28;20094;-78
2022/09/15 05:22:43;;;;;;;4.13;1.60;;;;;;;15.82;100.00;95220.06;5062098;28;20032;-77
2022/09/15 05:25:11;;;;;;;3.45;1.50;;;;;;;15.81;100.00;95215.81;5065441;28;20016;-77
2022/09/15 05:27:38;;;;;;;4.32;1.38;;;;;;;15.81;100.00;95218.44;5053534;28;20059;-77
2022/09/15 05:30:05;;;;;;;1.85;1.10;;;;;;;15.83;100.00;95213.72;5051112;28;20112;-77
2022/09/15 05:32:31;;;;;;;3.25;1.17;;;;;;;15.86;100.00;95221.25;5063759;28;20055;-80
2022/09/15 05:34:56;;;;;;;4.18;1.50;;;;;;;15.83;100.00;95219.03;5056647;28;20507;-77
2022/09/15 05:37:22;;;;;;;6.28;1.95;;;;;;;15.87;100.00;95221.06;5054041;28;20028;-77
2022/09/15 05:39:48;;;;;;;2.28;1.13;;;;;;;15.86;100.00;95222.09;5066588;28;20438;-77
2022/09/15 05:42:13;;;;;;;7.55;1.30;;;;;;;15.82;100.00;95222.72;5059666;28;20035;-77
2022/09/15 05:44:39;;;;;;;3.03;1.33;;;;;;;15.85;100.00;95223.09;5044151;28;20071;-77
2022/09/15 05:47:04;;;;;;;3.38;1.42;;;;;;;15.93;100.00;95225.50;5065564;28;20032;-77
2022/09/15 05:49:30;;;;;;;4.65;1.35;;;;;;;15.88;100.00;95224.50;5068211;28;20477;-78
2022/09/15 05:51:56;;;;;;;7.25;1.50;;;;;;;15.90;100.00;95231.22;5067835;28;20040;-77
2022/09/15 05:54:21;;;;;;;4.07;1.63;;;;;;;15.93;100.00;95222.03;5066017;28;20097;-76
2022/09/15 05:56:47;;;;;;;5.43;1.58;;;;;;;15.94;100.00;95226.31;5066284;28;20107;-77
2022/09/15 05:59:12;;;;;;;2.78;1.13;;;;;;;15.96;100.00;95227.72;5066469;28;20036;-77
2022/09/15 06:01:38;;;;;;;4.75;1.45;;;;;;;15.92;100.00;95228.34;5065603;28;20047;-77
2022/09/15 06:04:04;;;;;;;3.20;1.20;;;;;;;15.99;100.00;95223.78;5063181;28;20436;-77
2022/09/15 06:06:31;;;;;;;4.10;1.30;;;;;;;15.99;100.00;95221.94;5066222;28;20036;-77
2022/09/15 06:08:58;;;;;;;2.60;1.40;;;;;;;16.10;100.00;95227.59;5065868;28;20123;-77
2022/09/15 06:11:29;;;;;;;3.08;1.50;;;;;;;16.08;100.00;95227.78;5058709;28;20055;-77
2022/09/15 06:13:57;;;;;;;2.10;1.33;;;;;;;16.07;100.00;95231.50;5059231;28;20497;-77
2022/09/15 06:16:24;;;;;;;4.10;1.10;;;;;;;16.08;100.00;95224.34;5065795;28;20107;-78
2022/09/15 06:18:51;;;;;;;3.03;1.02;;;;;;;15.98;100.00;95232.78;5067614;28;20573;-78
2022/09/15 06:21:22;;;;;;;3.05;1.00;;;;;;;16.02;100.00;95228.66;5060340;28;20094;-77
2022/09/15 06:23:53;;;;;;;3.85;1.40;;;;;;;16.08;100.00;95232.28;5066662;28;20040;-77
2022/09/15 06:26:19;;;;;;;10.20;1.58;;;;;;;16.08;100.00;95234.94;5057923;28;20101;-77
2022/09/15 06:28:54;;;;;;;5.60;1.30;;;;;;;16.04;100.00;95221.31;5067237;28;20093;-77
2022/09/15 06:31:21;;;;;;;1.80;1.00;;;;;;;16.09;100.00;95229.41;5059051;28;20124;-76
2022/09/15 06:33:50;;;;;;;2.97;1.27;;;;;;;16.10;100.00;95233.72;5063079;28;20040;-77
2022/09/15 06:36:17;;;;;;;3.88;1.90;;;;;;;16.07;100.00;95231.50;5058562;28;20036;-77
2022/09/15 06:38:43;;;;;;;4.63;2.10;;;;;;;16.12;100.00;95234.28;5061884;28;20036;-76
2022/09/15 06:41:10;;;;;;;4.90;1.35;;;;;;;16.02;100.00;95240.06;5048695;28;20024;-77
2022/09/15 06:43:36;;;;;;;2.13;1.02;;;;;;;16.07;100.00;95238.63;5064604;28;20036;-77
2022/09/15 06:46:12;;;;;;;5.30;1.00;;;;;;;16.08;100.00;95238.41;5066115;28;20071;-77
2022/09/15 06:48:39;;;;;;;1.85;1.30;;;;;;;16.10;100.00;95238.22;5066372;28;20025;-77
2022/09/15 06:51:07;;;;;;;4.10;1.30;;;;;;;15.97;100.00;95242.59;5062041;28;20025;-77
2022/09/15 06:53:34;;;;;;;5.18;1.42;;;;;;;15.92;100.00;95253.00;5054069;28;20082;-77
2022/09/15 06:56:02;;;;;;;1.75;1.05;;;;;;;15.92;100.00;95249.56;5052652;28;20036;-78
2022/09/15 06:58:28;;;;;;;5.13;1.67;;;;;;;16.00;100.00;95267.88;5066514;28;20020;-77
2022/09/15 07:00:54;;;;;;;4.22;1.38;;;;;;;15.88;100.00;95256.31;5064240;28;20563;-77
2022/09/15 07:03:20;;;;;;;2.78;1.23;;;;;;;15.96;100.00;95251.56;5065061;28;20074;-77
2022/09/15 07:05:46;;;;;;;5.57;1.33;;;;;;;15.90;100.00;95264.88;5057601;28;20043;-77
2022/09/15 07:08:12;;;;;;;3.08;1.40;;;;;;;15.88;100.00;95264.28;5066494;28;20478;-76
2022/09/15 07:10:37;;;;;;;3.55;1.17;;;;;;;15.90;100.00;95263.03;5065301;28;20044;-77
2022/09/15 07:13:03;;;;;;;2.85;1.30;;;;;;;16.02;100.00;95260.47;5058500;28;20033;-77
2022/09/15 07:15:30;;;;;;;3.40;1.25;;;;;;;16.03;100.00;95257.63;5056134;28;20765;-78
2022/09/15 07:17:55;;;;;;;3.35;1.30;;;;;;;15.93;100.00;95261.81;5066454;28;20501;-78
2022/09/15 07:20:21;;;;;;;3.72;1.30;;;;;;;16.01;100.00;95269.47;5068597;28;20064;-78
2022/09/15 07:22:47;;;;;;;3.42;1.35;;;;;;;16.03;100.00;95262.13;5067949;28;20044;-76
2022/09/15 07:25:13;;;;;;;3.20;1.08;;;;;;;16.08;100.00;95266.78;5066399;28;20393;-77
2022/09/15 07:27:38;;;;;;;2.35;1.20;;;;;;;16.15;100.00;95276.28;5081764;28;20086;-78
2022/09/15 07:30:07;;;;;;;4.13;1.27;;;;;;;16.30;100.00;95288.41;5070693;28;20028;-78
2022/09/15 07:32:33;;;;;;;2.65;1.20;;;;;;;16.21;100.00;95286.03;5064928;28;20110;-76
2022/09/15 07:35:00;;;;;;;4.03;0.90;;;;;;;16.10;100.00;95283.28;5061103;28;20504;-77
2022/09/15 07:37:26;;;;;;;5.38;1.48;;;;;;;16.04;100.00;95287.59;5064494;28;20037;-77
2022/09/15 07:39:51;;;;;;;4.38;1.40;;;;;;;15.99;100.00;95304.16;5045974;28;20094;-78
2022/09/15 07:42:17;;;;;;;3.13;1.15;;;;;;;15.93;100.00;95310.34;5055247;28;20036;-77
2022/09/15 07:44:43;;;;;;;7.75;1.30;;;;;;;15.84;100.00;95305.50;5062181;28;20036;-77
2022/09/15 07:47:08;;;;;;;3.97;1.27;;;;;;;15.79;100.00;95314.94;5069667;28;20067;-78
2022/09/15 07:49:34;;;;;;;4.40;1.80;;;;;;;15.75;100.00;95326.16;5070116;28;20036;-78
2022/09/15 07:52:00;;;;;;;5.35;1.60;;;;;;;15.77;100.00;95324.13;5066398;28;20055;-77
2022/09/15 07:54:25;;;;;;;5.03;1.45;;;;;;;15.73;100.00;95326.38;5058144;28;20032;-77
2022/09/15 07:56:51;;;;;;;2.88;1.30;;;;;;;15.81;100.00;95324.50;5057771;28;20036;-77
2022/09/15 07:59:17;;;;;;;2.10;1.10;;;;;;;15.66;100.00;95322.97;5067431;28;20024;-77
2022/09/15 08:01:42;;;;;;;3.90;1.40;;;;;;;15.66;100.00;95330.91;5068374;28;20044;-78
2022/09/15 08:04:08;;;;;;;3.28;1.35;;;;;;;15.66;100.00;95336.22;5069873;28;20029;-77
2022/09/15 08:06:33;;;;;;;5.30;1.80;;;;;;;15.59;100.00;95327.44;5067211;28;20763;-78
2022/09/15 08:09:00;;;;;;;3.95;1.33;;;;;;;15.61;100.00;95328.03;5067898;28;20032;-77
2022/09/15 08:11:27;;;;;;;2.92;1.30;;;;;;;15.65;100.00;95333.72;5065650;28;20120;-77
2022/09/15 08:13:52;;;;;;;3.75;1.40;;;;;;;15.63;100.00;95339.25;5056674;28;20029;-77
2022/09/15 08:16:21;;;;;;;3.45;1.20;;;;;;;15.59;100.00;95340.69;5067497;28;20036;-77
2022/09/15 08:18:48;;;;;;;3.40;1.38;;;;;;;15.67;100.00;95348.44;5065261;28;20394;-77
2022/09/15 08:21:17;;;;;;;2.47;1.42;;;;;;;15.69;100.00;95353.50;5065965;28;20034;-77
2022/09/15 08:23:43;;;;;;;2.30;1.30;;;;;;;15.71;100.00;95351.47;5056409;28;20066;-77
2022/09/15 08:26:11;;;;;;;5.22;1.63;;;;;;;15.71;100.00;95360.22;5067239;28;20059;-77
2022/09/15 08:28:37;;;;;;;3.83;1.48;;;;;;;15.72;100.00;95358.38;5061573;28;20039;-77
2022/09/15 08:31:08;;;;;;;3.30;1.52;;;;;;;15.68;100.00;95360.66;5067866;28;20190;-77
2022/09/15 08:33:34;;;;;;;3.85;1.30;;;;;;;15.69;100.00;95364.94;5068723;28;20519;-77
2022/09/15 08:36:02;;;;;;;3.17;1.30;;;;;;;15.66;100.00;95362.72;5066530;28;20036;-77
2022/09/15 08:38:28;;;;;;;5.32;1.30;;;;;;;15.67;100.00;95363.53;5064649;28;20500;-77
2022/09/15 08:41:23;;;;;;;4.88;1.40;;;;;;;15.60;100.00;95368.81;5058060;28;20028;-77
2022/09/15 08:44:01;;;;;;;2.53;1.27;;;;;;;15.62;100.00;95372.06;5066784;28;20045;-77
2022/09/15 08:46:38;;;;;;;1.67;1.02;;;;;;;15.57;100.00;95374.56;5067094;28;20033;-77
2022/09/15 08:49:05;;;;;;;2.47;1.42;;;;;;;15.68;100.00;95376.56;5061328;28;20037;-77
2022/09/15 08:51:41;;;;;;;3.20;1.40;;;;;;;15.64;100.00;95385.94;5057022;28;20124;-77
2022/09/15 08:54:15;;;;;;;2.50;1.17;;;;;;;15.64;100.00;95385.13;5068458;28;20067;-77
2022/09/15 08:56:42;;;;;;;3.97;1.77;;;;;;;15.68;100.00;95381.84;5063324;28;20036;-77
2022/09/15 08:59:12;;;;;;;4.53;1.58;;;;;;;15.67;100.00;95379.44;5050276;28;20033;-77
2022/09/15 09:02:23;;;;;;;2.92;1.50;;;;;;;15.70;100.00;95385.13;5067623;28;20029;-77
2022/09/15 09:05:28;;;;;;;2.33;1.40;;;;;;;15.82;100.00;95377.28;5045318;28;20037;-77
2022/09/15 09:08:12;;;;;;;3.95;1.85;;;;;;;15.96;100.00;95378.03;5056332;28;20041;-78
2022/09/15 09:10:53;;;;;;;7.45;1.90;;;;;;;15.88;100.00;95380.94;5034916;28;20040;-77
2022/09/15 09:13:27;;;;;;;3.35;1.40;;;;;;;15.85;100.00;95376.06;5055944;28;20032;-77
2022/09/15 09:16:16;;;;;;;4.10;1.70;;;;;;;16.01;100.00;95371.06;5067395;28;20093;-77
2022/09/15 09:18:53;;;;;;;3.33;1.75;;;;;;;16.02;100.00;95377.97;5057535;28;20029;-77
2022/09/15 09:21:38;;;;;;;3.50;1.35;;;;;;;16.08;100.00;95378.97;5059809;28;20082;-77
2022/09/15 09:24:13;;;;;;;5.53;1.55;;;;;;;16.06;100.00;95378.34;5062125;28;20111;-77
2022/09/15 09:26:39;;;;;;;3.45;1.42;;;;;;;16.12;100.00;95376.69;5064693;28;20071;-77
2022/09/15 09:29:14;;;;;;;4.07;1.67;;;;;;;16.15;100.00;95382.38;5066385;28;20068;-77
2022/09/15 09:31:40;;;;;;;3.50;1.73;;;;;;;16.09;100.00;95385.09;5062355;28;20025;-77
2022/09/15 09:34:27;;;;;;;3.58;1.60;;;;;;;16.01;100.00;95373.72;5064267;28;20041;-77
2022/09/15 09:37:09;;;;;;;1.98;1.55;;;;;;;15.99;100.00;95389.00;5064815;28;20037;-77
2022/09/15 09:39:34;;;;;;;4.18;1.50;;;;;;;15.94;100.00;95390.69;5059598;28;20390;-77
2022/09/15 09:42:01;;;;;;;3.78;1.20;;;;;;;15.90;100.00;95389.50;5049215;28;20032;-77
2022/09/15 09:44:30;;;;;;;5.93;1.45;;;;;;;15.96;100.00;95386.81;5058884;28;20071;-77
2022/09/15 09:46:58;;;;;;;2.40;1.15;;;;;;;15.94;100.00;95390.69;5057933;28;20158;-77
2022/09/15 09:49:25;;;;;;;2.50;1.08;;;;;;;16.00;100.00;95389.84;5066693;28;20032;-77
2022/09/15 09:51:56;;;;;;;2.88;1.08;;;;;;;16.08;100.00;95378.97;5065336;28;20032;-77
2022/09/15 09:54:23;;;;;;;2.45;1.20;;;;;;;16.04;100.00;95375.13;5048443;28;20569;-78
2022/09/15 09:56:51;;;;;;;1.40;1.05;;;;;;;16.10;100.00;95376.94;5060069;28;20029;-78
2022/09/15 09:59:45;;;;;;;2.60;1.20;;;;;;;16.15;100.00;95374.44;5057856;28;20087;-78
2022/09/15 10:02:10;;;;;;;2.00;1.15;;;;;;;16.40;100.00;95377.13;5065941;28;20040;-77
2022/09/15 10:04:41;;;;;;;3.33;1.30;;;;;;;16.39;100.00;95366.69;5062604;28;20027;-77
2022/09/15 10:07:07;;;;;;;2.10;1.17;;;;;;;16.41;100.00;95359.34;5056956;28;20141;-77
2022/09/15 10:09:35;;;;;;;4.43;1.35;;;;;;;16.59;100.00;95359.38;5065766;28;20036;-78
2022/09/15 10:12:03;;;;;;;3.17;1.58;;;;;;;16.68;100.00;95362.59;5065164;28;20727;-78
2022/09/15 10:14:34;;;;;;;2.83;1.20;;;;;;;16.85;100.00;95357.53;5059340;28;20493;-77
2022/09/15 10:17:08;;;;;;;3.83;1.40;;;;;;;16.68;100.00;95349.31;5059683;28;20031;-77
2022/09/15 10:19:46;;;;;;;2.67;1.15;;;;;;;16.70;100.00;95361.34;5066534;28;20437;-77
2022/09/15 10:22:38;;;;;;;2.00;1.17;;;;;;;16.71;100.00;95360.31;5063854;28;20040;-77
2022/09/15 10:25:28;;;;;;;5.10;1.50;;;;;;;16.70;100.00;95358.69;5061821;28;20486;-77
2022/09/15 10:28:02;;;;;;;7.72;4.28;;;;;;;16.60;100.00;95361.03;5056894;28;20508;-77
2022/09/15 10:30:28;;;;;;;4.80;2.33;;;;;;;16.59;100.00;95359.38;5057884;28;20025;-77
2022/09/15 10:32:54;;;;;;;4.18;1.50;;;;;;;16.79;100.00;95361.06;5067415;28;20440;-77
2022/09/15 10:35:19;;;;;;;2.92;1.42;;;;;;;16.76;100.00;95361.50;5063713;28;20068;-77
2022/09/15 10:38:11;;;;;;;4.90;1.50;;;;;;;16.72;100.00;95355.78;5061127;28;20027;-77
2022/09/15 10:40:43;;;;;;;3.88;1.60;;;;;;;16.66;100.00;95359.31;5048909;28;20036;-77
2022/09/15 10:43:33;;;;;;;3.03;1.30;;;;;;;16.72;100.00;95356.59;5054364;28;20037;-77
2022/09/15 10:46:25;;;;;;;3.03;1.38;;;;;;;16.94;100.00;95357.03;5064983;28;20036;-77
2022/09/15 10:48:57;;;;;;;2.05;1.27;;;;;;;17.04;100.00;95361.84;5062688;28;20501;-77
2022/09/15 10:51:45;;;;;;;4.72;1.98;;;;;;;16.98;100.00;95352.09;5057158;28;20505;-77
2022/09/15 10:54:26;;;;;;;2.47;1.30;;;;;;;16.83;100.00;95348.97;5042958;28;20036;-78
2022/09/15 10:57:07;;;;;;;3.83;2.00;;;;;;;16.78;100.00;95351.50;5073265;28;20035;-77
2022/09/15 10:59:44;;;;;;;2.33;1.25;;;;;;;16.57;100.00;95353.50;5064823;28;20043;-77
2022/09/15 11:02:39;;;;;;;2.33;1.38;;;;;;;16.46;100.00;95357.69;5071514;28;20051;-77
2022/09/15 11:05:42;;;;;;;5.80;1.75;;;;;;;16.44;100.00;95348.31;5070027;28;20120;-77
2022/09/15 11:08:46;;;;;;;2.08;1.55;;;;;;;16.42;100.00;95345.03;5051974;28;20120;-78
2022/09/15 11:11:27;;;;;;;1.98;1.10;;;;;;;16.40;100.00;95347.94;5065234;28;20079;-77
2022/09/15 11:14:09;;;;;;;6.57;1.50;;;;;;;16.32;100.00;95352.69;5070206;28;20032;-78
2022/09/15 11:16:47;;;;;;;3.60;1.10;;;;;;;16.24;100.00;95359.06;5062357;28;20143;-78
2022/09/15 11:19:13;;;;;;;3.67;1.10;;;;;;;16.01;100.00;95359.66;5062079;28;20090;-78
2022/09/15 11:21:44;;;;;;;3.55;0.90;;;;;;;15.80;100.00;95366.09;5065046;28;20390;-78
2022/09/15 11:24:13;;;;;;;1.45;0.40;;;;;;;15.77;100.00;95375.28;5068019;28;20036;-78
2022/09/15 11:26:48;;;;;;;2.20;1.05;;;;;;;15.85;100.00;95384.00;5067417;28;20042;-78
2022/09/15 11:29:47;;;;;;;8.52;5.03;;;;;;;15.23;100.00;95392.41;5069407;28;20549;-77
2022/09/15 11:32:23;;;;;;;5.88;1.60;;;;;;;14.93;100.00;95394.72;5066730;28;20036;-76
2022/09/15 11:35:13;;;;;;;10.40;5.90;;;;;;;15.05;100.00;95408.13;5069373;28;20036;-77
2022/09/15 11:37:44;;;;;;;3.35;1.45;;;;;;;14.92;100.00;95411.63;5062694;28;20048;-77
2022/09/15 11:40:24;;;;;;;3.50;1.40;;;;;;;14.88;100.00;95406.94;5071456;28;20037;-77